Time;durP1;ratioP1;P1;durP2;ratioP2;P2;SDS_P1;SDS_P2;PMS_P1;PMS_P2;Temp;Humidity;BMP_temperature;BMP_pressure;BME280_temperature;BME280_humidity;BME280_pressure;Samples;Min_cycle;Max_cycle;Signal;HPM_P1;HPM_P2
2021/12/07 00:00:46;;;;;;;24.88;3.67;;;;;;;;;;4861535;29;20089;-76
2021/12/07 00:03:12;;;;;;;31.08;4.47;;;;;;;;;;4878022;29;20036;-76
2021/12/07 00:05:38;;;;;;;32.55;4.13;;;;;;;;;;4877862;29;20061;-76
2021/12/07 00:08:05;;;;;;;26.67;3.65;;;;;;;;;;4877738;29;20060;-76
2021/12/07 00:10:31;;;;;;;30.20;5.18;;;;;;;;;;4860939;29;20030;-76
2021/12/07 00:12:58;;;;;;;25.45;3.70;;;;;;;;;;4878154;29;20017;-76
2021/12/07 00:15:24;;;;;;;26.10;5.50;;;;;;;;;;4861394;29;20803;-76
2021/12/07 00:17:50;;;;;;;22.98;4.90;;;;;;;;;;4878190;29;20029;-76
2021/12/07 00:20:17;;;;;;;30.95;3.75;;;;;;;;;;4877607;29;20089;-76
2021/12/07 00:22:45;;;;;;;36.38;4.30;;;;;;;;;;4878505;29;20081;-76
2021/12/07 00:25:12;;;;;;;31.77;5.35;;;;;;;;;;4877575;29;20486;-76
2021/12/07 00:27:38;;;;;;;31.70;4.60;;;;;;;;;;4878009;29;20466;-76
2021/12/07 00:30:05;;;;;;;41.45;4.90;;;;;;;;;;4860661;29;20387;-76
2021/12/07 00:32:35;;;;;;;29.83;4.65;;;;;;;;;;4877796;29;20028;-76
2021/12/07 00:35:25;;;;;;;31.35;5.03;;;;;;;;;;4878169;29;20450;-76
2021/12/07 00:37:56;;;;;;;31.73;4.03;;;;;;;;;;4859708;29;20434;-76
2021/12/07 00:40:22;;;;;;;37.53;4.78;;;;;;;;;;4861259;29;20037;-76
2021/12/07 00:42:49;;;;;;;29.13;4.10;;;;;;;;;;4862933;29;20486;-76
2021/12/07 00:45:19;;;;;;;35.03;5.00;;;;;;;;;;4880525;29;20585;-76
2021/12/07 00:47:45;;;;;;;30.52;5.00;;;;;;;;;;4881300;29;20029;-76
2021/12/07 00:50:12;;;;;;;37.17;4.72;;;;;;;;;;4880996;29;20047;-76
2021/12/07 00:52:38;;;;;;;32.42;4.50;;;;;;;;;;4881330;29;20522;-76
2021/12/07 00:55:07;;;;;;;28.00;4.60;;;;;;;;;;4880530;29;20115;-76
2021/12/07 00:57:33;;;;;;;39.20;5.55;;;;;;;;;;4878221;29;20072;-76
2021/12/07 00:59:59;;;;;;;22.38;3.85;;;;;;;;;;4862613;29;20101;-76
2021/12/07 01:02:25;;;;;;;27.10;4.18;;;;;;;;;;4862089;29;20458;-76
2021/12/07 01:04:57;;;;;;;27.13;4.15;;;;;;;;;;4869546;29;20037;-76
2021/12/07 01:07:50;;;;;;;31.77;4.47;;;;;;;;;;4880909;29;20470;-76
2021/12/07 01:26:39;;;;;;;31.45;5.38;;;;;;;;;;4880540;29;20040;-76
2021/12/07 01:29:05;;;;;;;37.25;5.10;;;;;;;;;;4880513;29;20021;-76
2021/12/07 01:50:28;;;;;;;32.92;6.40;;;;;;;;;;4786609;29;20118;-76
2021/12/07 02:00:54;;;;;;;27.73;5.18;;;;;;;;;;4786450;30;20123;-76
2021/12/07 02:03:21;;;;;;;41.17;5.90;;;;;;;;;;4786608;29;20039;-76
2021/12/07 02:05:47;;;;;;;36.38;8.27;;;;;;;;;;4785179;29;20237;-76
2021/12/07 02:08:14;;;;;;;47.60;7.50;;;;;;;;;;4786268;29;20069;-76
2021/12/07 02:10:40;;;;;;;26.80;5.38;;;;;;;;;;4786292;29;20036;-76
2021/12/07 02:13:20;;;;;;;31.17;4.50;;;;;;;;;;4786362;29;20042;-76
2021/12/07 02:15:46;;;;;;;45.53;6.95;;;;;;;;;;4801579;29;20031;-76
2021/12/07 02:18:12;;;;;;;38.70;7.78;;;;;;;;;;4833152;29;20513;-76
2021/12/07 02:20:38;;;;;;;33.95;6.55;;;;;;;;;;4878986;29;20044;-76
2021/12/07 02:23:05;;;;;;;32.53;5.25;;;;;;;;;;4879287;29;20119;-76
2021/12/07 02:25:32;;;;;;;38.00;5.50;;;;;;;;;;4879095;29;20037;-76
2021/12/07 02:27:59;;;;;;;29.08;4.00;;;;;;;;;;4879906;29;20032;-76
2021/12/07 02:30:26;;;;;;;44.60;10.77;;;;;;;;;;4879289;29;20025;-76
2021/12/07 02:32:54;;;;;;;37.17;8.98;;;;;;;;;;4879460;29;20065;-76
2021/12/07 02:35:26;;;;;;;129.88;56.10;;;;;;;;;;4862340;29;20029;-76
2021/12/07 02:37:54;;;;;;;51.53;17.63;;;;;;;;;;4879036;29;20394;-76
2021/12/07 02:40:20;;;;;;;38.47;12.10;;;;;;;;;;4879003;29;20029;-76
2021/12/07 02:42:46;;;;;;;23.00;3.95;;;;;;;;;;4878727;29;20401;-76
2021/12/07 02:45:12;;;;;;;45.58;15.32;;;;;;;;;;4878997;29;20092;-76
2021/12/07 02:47:39;;;;;;;31.08;4.80;;;;;;;;;;4878964;29;20037;-76
2021/12/07 02:50:06;;;;;;;31.77;6.65;;;;;;;;;;4879494;29;20021;-76
2021/12/07 02:52:32;;;;;;;40.85;6.45;;;;;;;;;;4878179;29;20056;-76
2021/12/07 02:54:58;;;;;;;29.77;5.15;;;;;;;;;;4879093;29;20021;-76
2021/12/07 02:57:24;;;;;;;32.75;4.85;;;;;;;;;;4879264;29;20530;-76
2021/12/07 03:00:05;;;;;;;34.92;6.80;;;;;;;;;;4878757;29;20029;-76
2021/12/07 03:02:36;;;;;;;35.47;5.10;;;;;;;;;;4877756;29;20029;-76
2021/12/07 03:05:10;;;;;;;36.63;6.38;;;;;;;;;;4878660;29;20057;-76
2021/12/07 03:26:35;;;;;;;26.52;4.07;;;;;;;;;;4878703;29;20049;-76
2021/12/07 03:29:02;;;;;;;29.80;3.80;;;;;;;;;;4874802;29;20371;-76
2021/12/07 03:31:29;;;;;;;29.88;3.85;;;;;;;;;;4878495;29;20049;-76
2021/12/07 03:33:56;;;;;;;22.65;3.25;;;;;;;;;;4878168;29;20060;-76
2021/12/07 03:36:22;;;;;;;29.15;4.43;;;;;;;;;;4878444;29;20080;-76
2021/12/07 03:38:48;;;;;;;24.65;3.38;;;;;;;;;;4878558;29;20032;-76
2021/12/07 03:41:14;;;;;;;29.50;4.22;;;;;;;;;;4877531;29;20112;-76
2021/12/07 03:43:41;;;;;;;28.63;4.10;;;;;;;;;;4878025;29;20458;-76
2021/12/07 03:46:07;;;;;;;34.85;6.43;;;;;;;;;;4878351;29;20033;-76
2021/12/07 03:48:33;;;;;;;32.63;4.38;;;;;;;;;;4877954;29;20076;-76
2021/12/07 03:50:59;;;;;;;28.80;4.10;;;;;;;;;;4878136;29;20489;-76
2021/12/07 03:53:27;;;;;;;24.05;3.72;;;;;;;;;;4878447;29;20053;-76
2021/12/07 03:55:54;;;;;;;26.63;4.20;;;;;;;;;;4861011;29;20036;-76
2021/12/07 03:58:20;;;;;;;15.40;3.22;;;;;;;;;;4878182;29;20509;-76
2021/12/07 04:00:47;;;;;;;19.13;3.67;;;;;;;;;;4877746;29;20493;-76
2021/12/07 04:03:14;;;;;;;18.25;2.90;;;;;;;;;;4877985;29;20408;-76
2021/12/07 04:05:49;;;;;;;24.50;3.20;;;;;;;;;;4878015;29;20021;-76
2021/12/07 04:08:16;;;;;;;24.08;4.30;;;;;;;;;;4877946;29;20047;-76
2021/12/07 04:10:43;;;;;;;17.90;2.97;;;;;;;;;;4878141;29;20089;-76
2021/12/07 04:13:09;;;;;;;26.65;3.53;;;;;;;;;;4877904;29;20064;-76
2021/12/07 04:15:35;;;;;;;28.52;4.55;;;;;;;;;;4880400;29;20053;-76
2021/12/07 04:18:01;;;;;;;21.20;3.03;;;;;;;;;;4880007;29;20037;-76
2021/12/07 04:20:27;;;;;;;19.63;3.10;;;;;;;;;;4881737;29;20040;-76
2021/12/07 04:22:54;;;;;;;25.45;3.28;;;;;;;;;;4880934;29;20064;-76
2021/12/07 04:25:23;;;;;;;25.58;4.05;;;;;;;;;;4881812;29;20032;-76
2021/12/07 04:27:49;;;;;;;22.83;3.88;;;;;;;;;;4881760;29;20037;-76
2021/12/07 04:30:16;;;;;;;21.20;3.08;;;;;;;;;;4881653;29;20025;-76
2021/12/07 04:32:43;;;;;;;28.30;4.82;;;;;;;;;;4881279;29;20037;-76
2021/12/07 04:35:10;;;;;;;17.52;2.95;;;;;;;;;;4882039;29;20474;-76
2021/12/07 04:37:37;;;;;;;18.60;3.63;;;;;;;;;;4863766;29;20088;-76
2021/12/07 04:40:04;;;;;;;23.67;4.07;;;;;;;;;;4864555;29;20466;-76
2021/12/07 04:42:31;;;;;;;15.73;3.40;;;;;;;;;;4869033;29;20044;-76
2021/12/07 04:45:01;;;;;;;19.52;3.60;;;;;;;;;;4873596;29;20029;-76
2021/12/07 04:58:14;;;;;;;20.38;3.38;;;;;;;;;;4823702;29;20041;-76
2021/12/07 05:00:40;;;;;;;24.63;3.80;;;;;;;;;;4823409;29;20042;-76
2021/12/07 05:03:08;;;;;;;27.60;4.75;;;;;;;;;;4823214;29;20061;-76
2021/12/07 05:05:40;;;;;;;19.73;3.38;;;;;;;;;;4823760;29;20510;-76
2021/12/07 05:08:10;;;;;;;30.40;3.80;;;;;;;;;;4823009;29;20518;-76
2021/12/07 05:18:53;;;;;;;31.35;5.22;;;;;;;;;;4823098;29;20128;-76
2021/12/07 05:24:10;;;;;;;20.42;3.38;;;;;;;;;;4822561;29;20167;-76
2021/12/07 05:40:18;;;;;;;18.67;3.10;;;;;;;;;;4879442;29;20451;-76
2021/12/07 05:42:44;;;;;;;18.63;2.70;;;;;;;;;;4879000;29;20033;-77
2021/12/07 05:45:12;;;;;;;16.58;2.83;;;;;;;;;;4862980;29;20128;-76
2021/12/07 05:47:38;;;;;;;17.85;2.95;;;;;;;;;;4868646;29;20462;-82
2021/12/07 05:50:06;;;;;;;19.13;2.88;;;;;;;;;;4872854;29;20117;-76
2021/12/07 05:52:32;;;;;;;20.38;3.15;;;;;;;;;;4861468;29;20534;-76
2021/12/07 05:54:58;;;;;;;16.42;2.58;;;;;;;;;;4861214;29;20478;-76
2021/12/07 05:57:25;;;;;;;19.23;2.83;;;;;;;;;;4865541;29;20036;-78
2021/12/07 05:59:51;;;;;;;15.57;2.72;;;;;;;;;;4880170;29;20409;-76
2021/12/07 06:02:17;;;;;;;16.92;2.92;;;;;;;;;;4867830;29;20029;-76
2021/12/07 06:04:43;;;;;;;15.23;2.50;;;;;;;;;;4873478;29;20028;-76
2021/12/07 06:07:10;;;;;;;21.48;2.65;;;;;;;;;;4873849;29;20056;-76
2021/12/07 06:09:37;;;;;;;17.95;2.75;;;;;;;;;;4879756;29;20025;-78
2021/12/07 06:12:03;;;;;;;24.90;3.25;;;;;;;;;;4879254;29;20029;-76
2021/12/07 06:14:33;;;;;;;26.08;4.00;;;;;;;;;;4879238;29;20037;-76
2021/12/07 06:16:59;;;;;;;15.15;2.80;;;;;;;;;;4879155;29;20497;-76
2021/12/07 06:19:25;;;;;;;13.13;2.53;;;;;;;;;;4879805;29;20033;-77
2021/12/07 06:21:51;;;;;;;23.27;2.63;;;;;;;;;;4871453;29;20037;-77
2021/12/07 06:24:18;;;;;;;12.45;2.92;;;;;;;;;;4879748;29;20030;-77
2021/12/07 06:26:44;;;;;;;18.65;2.90;;;;;;;;;;4874111;29;20033;-77
2021/12/07 06:29:10;;;;;;;18.92;3.05;;;;;;;;;;4879928;29;20017;-76
2021/12/07 06:31:36;;;;;;;13.82;3.05;;;;;;;;;;4879517;29;20446;-77
2021/12/07 06:34:02;;;;;;;10.55;2.08;;;;;;;;;;4879291;29;20041;-77
2021/12/07 06:36:28;;;;;;;16.38;3.10;;;;;;;;;;4879010;29;20040;-77
2021/12/07 06:38:54;;;;;;;17.85;3.88;;;;;;;;;;4879185;29;20029;-77
2021/12/07 06:41:20;;;;;;;13.65;3.22;;;;;;;;;;4862095;29;20422;-77
2021/12/07 06:43:46;;;;;;;14.70;2.83;;;;;;;;;;4879288;29;20405;-77
2021/12/07 06:46:12;;;;;;;13.48;3.30;;;;;;;;;;4879437;29;20040;-77
2021/12/07 06:48:39;;;;;;;15.25;3.17;;;;;;;;;;4862568;29;20589;-77
2021/12/07 06:51:05;;;;;;;16.65;3.33;;;;;;;;;;4878820;29;20033;-77
2021/12/07 06:53:35;;;;;;;16.75;3.63;;;;;;;;;;4879195;29;20418;-76
2021/12/07 06:56:05;;;;;;;24.50;3.15;;;;;;;;;;4861679;29;20036;-77
2021/12/07 06:58:31;;;;;;;19.50;4.07;;;;;;;;;;4879097;29;20033;-76
2021/12/07 07:00:58;;;;;;;14.45;3.08;;;;;;;;;;4879422;29;20033;-77
2021/12/07 07:03:24;;;;;;;16.10;3.03;;;;;;;;;;4878850;29;20108;-77
2021/12/07 07:05:50;;;;;;;22.27;4.20;;;;;;;;;;4878662;29;20569;-77
2021/12/07 07:08:16;;;;;;;20.00;3.60;;;;;;;;;;4878523;29;20056;-77
2021/12/07 07:10:42;;;;;;;17.30;4.45;;;;;;;;;;4879022;29;20033;-77
2021/12/07 07:13:08;;;;;;;17.20;4.85;;;;;;;;;;4862028;29;20025;-77
2021/12/07 07:15:35;;;;;;;21.83;4.70;;;;;;;;;;4878660;29;20084;-77
2021/12/07 07:18:01;;;;;;;29.67;5.85;;;;;;;;;;4878702;29;20470;-77
2021/12/07 07:20:28;;;;;;;18.05;5.53;;;;;;;;;;4878906;29;20041;-77
2021/12/07 07:22:54;;;;;;;21.42;5.88;;;;;;;;;;4878300;29;20029;-77
2021/12/07 07:25:20;;;;;;;26.25;6.85;;;;;;;;;;4878252;29;20056;-77
2021/12/07 07:27:47;;;;;;;30.00;6.85;;;;;;;;;;4878648;29;20041;-77
2021/12/07 07:30:15;;;;;;;17.30;5.55;;;;;;;;;;4878763;29;20085;-77
2021/12/07 07:32:41;;;;;;;22.25;4.15;;;;;;;;;;4878718;29;20025;-77
2021/12/07 07:35:08;;;;;;;25.30;4.65;;;;;;;;;;4878196;29;20097;-77
2021/12/07 07:37:34;;;;;;;30.83;4.10;;;;;;;;;;4878386;29;20029;-77
2021/12/07 07:40:00;;;;;;;23.27;3.70;;;;;;;;;;4878175;29;20044;-76
2021/12/07 07:42:26;;;;;;;24.40;4.28;;;;;;;;;;4878222;29;20037;-77
2021/12/07 07:44:52;;;;;;;32.72;5.38;;;;;;;;;;4877890;29;20045;-77
2021/12/07 07:47:18;;;;;;;38.42;5.47;;;;;;;;;;4878165;29;20472;-77
2021/12/07 07:49:45;;;;;;;32.75;6.13;;;;;;;;;;4878060;29;20043;-76
2021/12/07 07:52:11;;;;;;;30.55;6.00;;;;;;;;;;4861008;29;20045;-77
2021/12/07 07:54:37;;;;;;;36.28;6.53;;;;;;;;;;4877902;29;20153;-77
2021/12/07 07:57:03;;;;;;;29.23;6.75;;;;;;;;;;4878206;29;20033;-76
2021/12/07 07:59:29;;;;;;;21.77;5.38;;;;;;;;;;4878029;29;20025;-77
2021/12/07 08:01:55;;;;;;;25.70;5.47;;;;;;;;;;4878353;29;20121;-76
2021/12/07 08:04:21;;;;;;;30.05;5.63;;;;;;;;;;4878119;29;20037;-77
2021/12/07 08:06:47;;;;;;;30.77;5.95;;;;;;;;;;4878067;29;20028;-77
2021/12/07 08:09:13;;;;;;;33.17;6.28;;;;;;;;;;4877669;29;20041;-77
2021/12/07 08:11:40;;;;;;;27.58;5.32;;;;;;;;;;4861257;29;20251;-77
2021/12/07 08:14:06;;;;;;;28.75;5.18;;;;;;;;;;4878064;29;20029;-77
2021/12/07 08:16:32;;;;;;;31.40;5.72;;;;;;;;;;4878036;29;20025;-77
2021/12/07 08:18:58;;;;;;;29.05;5.25;;;;;;;;;;4877533;29;20053;-77
2021/12/07 08:21:24;;;;;;;34.45;6.35;;;;;;;;;;4877939;29;20021;-77
2021/12/07 08:23:50;;;;;;;39.20;6.22;;;;;;;;;;4877722;29;20033;-77
2021/12/07 08:26:18;;;;;;;30.35;5.65;;;;;;;;;;4877679;29;20032;-77
2021/12/07 08:28:44;;;;;;;36.90;6.15;;;;;;;;;;4878349;29;20037;-77
2021/12/07 08:31:10;;;;;;;30.45;5.97;;;;;;;;;;4877946;29;20029;-77
2021/12/07 08:33:36;;;;;;;30.70;5.22;;;;;;;;;;4877332;29;20379;-77
2021/12/07 08:36:03;;;;;;;25.80;5.18;;;;;;;;;;4861420;29;20029;-77
2021/12/07 08:38:29;;;;;;;26.38;5.10;;;;;;;;;;4877433;29;20040;-78
2021/12/07 08:40:55;;;;;;;20.77;5.07;;;;;;;;;;4877742;29;20029;-77
2021/12/07 08:43:23;;;;;;;36.03;5.00;;;;;;;;;;4877564;29;20036;-77
2021/12/07 08:45:49;;;;;;;23.70;4.63;;;;;;;;;;4877608;29;20439;-77
2021/12/07 08:48:15;;;;;;;27.55;5.63;;;;;;;;;;4877476;29;20482;-77
2021/12/07 08:50:42;;;;;;;31.02;5.13;;;;;;;;;;4878196;29;20085;-77
2021/12/07 08:53:11;;;;;;;33.33;5.97;;;;;;;;;;4877518;29;20085;-77
2021/12/07 09:01:09;;;;;;;35.08;5.75;;;;;;;;;;4879560;29;20043;-77
2021/12/07 09:03:35;;;;;;;36.97;6.40;;;;;;;;;;4880875;29;20059;-77
2021/12/07 09:06:01;;;;;;;49.60;6.68;;;;;;;;;;4881051;29;20029;-77
2021/12/07 09:08:27;;;;;;;46.17;7.25;;;;;;;;;;4880540;29;20400;-75
2021/12/07 09:10:53;;;;;;;49.75;7.25;;;;;;;;;;4881008;29;20105;-77
2021/12/07 09:13:20;;;;;;;50.85;6.95;;;;;;;;;;4881151;29;20090;-77
2021/12/07 09:15:47;;;;;;;54.75;7.78;;;;;;;;;;4880870;29;20044;-77
2021/12/07 09:18:13;;;;;;;47.80;7.00;;;;;;;;;;4880736;29;20120;-76
2021/12/07 09:20:39;;;;;;;45.13;7.53;;;;;;;;;;4880759;29;20489;-77
2021/12/07 09:23:05;;;;;;;47.13;7.47;;;;;;;;;;4880548;29;20401;-77
2021/12/07 09:25:32;;;;;;;41.53;7.10;;;;;;;;;;4880540;29;20451;-77
2021/12/07 09:27:58;;;;;;;50.80;7.22;;;;;;;;;;4880742;29;20033;-77
2021/12/07 09:30:24;;;;;;;50.80;6.70;;;;;;;;;;4880234;29;20025;-76
2021/12/07 09:32:51;;;;;;;51.55;6.75;;;;;;;;;;4880849;29;20033;-77
2021/12/07 09:35:17;;;;;;;44.88;6.63;;;;;;;;;;4880373;29;20029;-77
2021/12/07 09:37:44;;;;;;;33.50;7.00;;;;;;;;;;4880387;29;20493;-77
2021/12/07 09:40:13;;;;;;;43.30;6.88;;;;;;;;;;4880384;29;20036;-77
2021/12/07 09:42:39;;;;;;;45.33;6.78;;;;;;;;;;4880314;29;20029;-74
2021/12/07 09:45:07;;;;;;;43.47;7.30;;;;;;;;;;4880358;29;20119;-77
2021/12/07 09:47:33;;;;;;;35.40;6.38;;;;;;;;;;4880039;29;20048;-77
2021/12/07 09:49:59;;;;;;;59.85;7.45;;;;;;;;;;4863337;29;20060;-77
2021/12/07 09:52:26;;;;;;;40.95;5.80;;;;;;;;;;4879926;29;20053;-77
2021/12/07 09:54:53;;;;;;;44.60;6.82;;;;;;;;;;4880610;29;20102;-77
2021/12/07 09:57:19;;;;;;;46.22;6.93;;;;;;;;;;4879861;29;20076;-77
2021/12/07 09:59:45;;;;;;;44.20;6.25;;;;;;;;;;4880145;29;20029;-77
2021/12/07 10:02:11;;;;;;;43.83;6.07;;;;;;;;;;4880103;29;20037;-77
2021/12/07 10:04:37;;;;;;;32.38;5.35;;;;;;;;;;4879698;29;20447;-77
2021/12/07 10:07:03;;;;;;;39.97;6.18;;;;;;;;;;4880289;29;20048;-77
2021/12/07 10:09:29;;;;;;;41.53;6.30;;;;;;;;;;4879631;29;20025;-77
2021/12/07 10:11:55;;;;;;;36.42;7.38;;;;;;;;;;4879965;29;20107;-77
2021/12/07 10:14:22;;;;;;;47.08;7.25;;;;;;;;;;4880028;29;20018;-77
2021/12/07 10:16:49;;;;;;;29.15;6.38;;;;;;;;;;4879839;29;20040;-77
2021/12/07 10:19:28;;;;;;;44.88;6.75;;;;;;;;;;4879567;29;20040;-77
2021/12/07 10:22:02;;;;;;;39.28;6.35;;;;;;;;;;4863196;29;20033;-77
2021/12/07 10:24:37;;;;;;;48.13;6.30;;;;;;;;;;4879623;29;20108;-77
2021/12/07 10:27:03;;;;;;;26.63;5.75;;;;;;;;;;4862795;29;20041;-77
2021/12/07 10:29:29;;;;;;;26.58;5.30;;;;;;;;;;4879313;29;20160;-76
2021/12/07 10:32:00;;;;;;;34.10;6.30;;;;;;;;;;4879868;29;20029;-77
2021/12/07 10:34:29;;;;;;;34.60;5.70;;;;;;;;;;4879221;29;20105;-76
2021/12/07 10:37:06;;;;;;;29.70;5.30;;;;;;;;;;4879238;29;20025;-77
2021/12/07 10:39:37;;;;;;;32.30;4.80;;;;;;;;;;4879362;29;20040;-77
2021/12/07 10:42:05;;;;;;;20.15;3.70;;;;;;;;;;4879474;29;20036;-77
2021/12/07 10:44:35;;;;;;;31.40;4.18;;;;;;;;;;4879213;29;20032;-77
2021/12/07 10:47:03;;;;;;;30.23;5.30;;;;;;;;;;4879041;29;20029;-77
2021/12/07 10:49:35;;;;;;;24.52;4.28;;;;;;;;;;4878608;29;20032;-77
2021/12/07 10:52:19;;;;;;;21.25;3.47;;;;;;;;;;4879064;29;20029;-77
2021/12/07 10:54:48;;;;;;;31.15;3.67;;;;;;;;;;4879024;29;20025;-77
2021/12/07 10:57:22;;;;;;;22.45;4.15;;;;;;;;;;4879015;29;20029;-77
2021/12/07 10:59:53;;;;;;;30.30;4.45;;;;;;;;;;4878820;29;20040;-76
2021/12/07 11:02:19;;;;;;;30.88;3.63;;;;;;;;;;4862171;29;20032;-77
2021/12/07 11:04:46;;;;;;;18.45;3.83;;;;;;;;;;4878884;29;20065;-77
2021/12/07 11:07:22;;;;;;;28.30;4.40;;;;;;;;;;4879049;29;20413;-77
2021/12/07 11:09:57;;;;;;;30.58;3.67;;;;;;;;;;4878562;29;20029;-77
2021/12/07 11:12:25;;;;;;;22.90;3.22;;;;;;;;;;4879279;29;20057;-77
2021/12/07 11:14:53;;;;;;;21.70;3.08;;;;;;;;;;4878956;29;20481;-77
2021/12/07 11:17:30;;;;;;;25.52;4.40;;;;;;;;;;4861856;29;20422;-77
2021/12/07 11:19:57;;;;;;;27.45;5.35;;;;;;;;;;4878676;29;20029;-77
2021/12/07 11:22:26;;;;;;;22.95;3.65;;;;;;;;;;4878558;29;20037;-77
2021/12/07 11:24:54;;;;;;;30.67;4.13;;;;;;;;;;4861453;29;20438;-77
2021/12/07 11:30:09;;;;;;;21.38;3.75;;;;;;;;;;4877794;29;20036;-77
2021/12/07 11:32:35;;;;;;;24.73;4.18;;;;;;;;;;4878314;29;20029;-76
2021/12/07 11:35:32;;;;;;;21.98;4.10;;;;;;;;;;4877416;29;20497;-76
2021/12/07 11:38:00;;;;;;;20.48;3.20;;;;;;;;;;4849469;29;20044;-76
2021/12/07 11:40:28;;;;;;;28.20;3.33;;;;;;;;;;4876263;29;20679;-76
2021/12/07 11:42:55;;;;;;;21.33;3.70;;;;;;;;;;4878658;29;20510;-77
2021/12/07 11:45:26;;;;;;;23.08;3.30;;;;;;;;;;4878262;29;20557;-77
2021/12/07 11:48:00;;;;;;;22.77;3.25;;;;;;;;;;4877943;29;20029;-76
2021/12/07 11:50:34;;;;;;;23.52;3.22;;;;;;;;;;4878418;29;20028;-77
2021/12/07 11:53:05;;;;;;;18.65;2.80;;;;;;;;;;4877097;29;20391;-76
2021/12/07 11:55:32;;;;;;;22.33;3.55;;;;;;;;;;4874734;29;20494;-76
2021/12/07 11:57:58;;;;;;;16.63;2.80;;;;;;;;;;4878140;29;20036;-76
2021/12/07 12:00:26;;;;;;;15.13;2.42;;;;;;;;;;4877721;29;20032;-76
2021/12/07 12:02:53;;;;;;;18.35;3.42;;;;;;;;;;4877965;29;20029;-76
2021/12/07 12:05:19;;;;;;;16.13;2.80;;;;;;;;;;4878483;29;20112;-77
2021/12/07 12:07:47;;;;;;;18.88;2.83;;;;;;;;;;4872247;29;20033;-76
2021/12/07 12:10:14;;;;;;;34.53;3.70;;;;;;;;;;4877603;29;20137;-77
2021/12/07 12:12:53;;;;;;;16.13;3.05;;;;;;;;;;4869935;29;20487;-76
2021/12/07 15:26:16;;;;;;;27.33;4.18;;;;;;;;;;4951386;23;20586;-75
2021/12/07 15:28:59;;;;;;;16.45;3.30;;;;;;;;;;4878615;29;20040;-75
2021/12/07 15:31:28;;;;;;;13.73;3.13;;;;;;;;;;4879118;29;20112;-75
2021/12/07 15:33:55;;;;;;;13.13;2.88;;;;;;;;;;4878556;29;20100;-75
2021/12/07 15:36:22;;;;;;;10.98;2.28;;;;;;;;;;4878872;29;20496;-75
2021/12/07 15:38:49;;;;;;;13.05;2.55;;;;;;;;;;4878557;29;20025;-75
2021/12/07 15:41:15;;;;;;;18.17;3.10;;;;;;;;;;4879148;29;20040;-74
2021/12/07 15:43:45;;;;;;;6.13;2.00;;;;;;;;;;4878835;29;20172;-75
2021/12/07 15:46:15;;;;;;;13.65;2.33;;;;;;;;;;4878747;29;20397;-75
2021/12/07 15:48:42;;;;;;;15.15;2.97;;;;;;;;;;4879327;29;20110;-77
2021/12/07 15:51:08;;;;;;;11.02;2.67;;;;;;;;;;4877692;29;20065;-76
2021/12/07 15:53:34;;;;;;;15.18;3.92;;;;;;;;;;4878226;29;20025;-75
2021/12/07 15:56:01;;;;;;;16.80;5.15;;;;;;;;;;4878634;29;20029;-75
2021/12/07 15:58:27;;;;;;;12.80;3.38;;;;;;;;;;4878883;29;20437;-80
2021/12/07 16:00:57;;;;;;;15.73;3.30;;;;;;;;;;4878856;29;20055;-75
2021/12/07 16:03:35;;;;;;;13.65;3.20;;;;;;;;;;4878277;29;20029;-75
2021/12/07 16:06:02;;;;;;;15.02;4.10;;;;;;;;;;4878889;29;20105;-75
2021/12/07 16:08:33;;;;;;;12.90;2.60;;;;;;;;;;4876810;29;20064;-74
2021/12/07 16:11:04;;;;;;;15.10;3.05;;;;;;;;;;4884246;29;20088;-75
2021/12/07 16:13:31;;;;;;;11.32;2.35;;;;;;;;;;4884187;29;20032;-75
2021/12/07 16:15:59;;;;;;;8.70;1.95;;;;;;;;;;4883810;29;20081;-75
2021/12/07 16:18:26;;;;;;;12.27;3.15;;;;;;;;;;4884049;29;20071;-75
2021/12/07 16:20:54;;;;;;;13.85;2.92;;;;;;;;;;4884375;29;20112;-75
2021/12/07 16:23:20;;;;;;;15.93;2.45;;;;;;;;;;4884239;29;20040;-75
2021/12/07 16:25:48;;;;;;;11.85;2.60;;;;;;;;;;4884164;29;20052;-76
2021/12/07 16:28:15;;;;;;;13.25;2.63;;;;;;;;;;4884074;29;20473;-75
2021/12/07 16:30:41;;;;;;;14.85;3.13;;;;;;;;;;4882078;29;20177;-75
2021/12/07 16:33:07;;;;;;;15.68;2.85;;;;;;;;;;4878587;29;20044;-76
2021/12/07 16:35:34;;;;;;;11.57;2.45;;;;;;;;;;4883968;29;20025;-75
2021/12/07 16:38:00;;;;;;;17.98;2.95;;;;;;;;;;4884031;29;20389;-75
2021/12/07 16:40:27;;;;;;;12.50;3.38;;;;;;;;;;4879834;29;20403;-75
2021/12/07 16:42:53;;;;;;;14.48;3.15;;;;;;;;;;4879885;29;20393;-75
2021/12/07 16:45:21;;;;;;;13.18;2.90;;;;;;;;;;4883571;29;20068;-75
2021/12/07 16:47:47;;;;;;;15.65;2.80;;;;;;;;;;4882837;29;20093;-76
2021/12/07 16:50:14;;;;;;;18.90;3.83;;;;;;;;;;4883178;29;20033;-75
2021/12/07 16:52:40;;;;;;;19.63;4.18;;;;;;;;;;4883653;29;20096;-75
2021/12/07 16:55:08;;;;;;;19.40;3.90;;;;;;;;;;4884000;29;20047;-75
2021/12/07 16:57:34;;;;;;;17.88;3.40;;;;;;;;;;4882673;29;20089;-74
2021/12/07 17:00:00;;;;;;;13.57;2.92;;;;;;;;;;4885521;29;20036;-75
2021/12/07 17:02:28;;;;;;;15.18;3.25;;;;;;;;;;4883869;29;20389;-74
2021/12/07 17:04:55;;;;;;;13.65;2.63;;;;;;;;;;4883657;29;20017;-74
2021/12/07 17:07:21;;;;;;;13.45;2.97;;;;;;;;;;4884382;29;20115;-75
2021/12/07 17:09:47;;;;;;;16.25;3.17;;;;;;;;;;4884471;29;20387;-74
2021/12/07 17:12:13;;;;;;;16.17;3.22;;;;;;;;;;4884069;29;20171;-75
2021/12/07 17:14:39;;;;;;;19.10;3.75;;;;;;;;;;4882974;29;20063;-75
2021/12/07 17:17:05;;;;;;;16.75;3.33;;;;;;;;;;4883391;29;20029;-75
2021/12/07 17:19:31;;;;;;;18.73;4.13;;;;;;;;;;4884091;29;20033;-75
2021/12/07 17:21:57;;;;;;;20.20;2.78;;;;;;;;;;4876673;29;20057;-74
2021/12/07 17:24:23;;;;;;;21.10;4.07;;;;;;;;;;4880993;29;20061;-74
2021/12/07 17:26:50;;;;;;;21.80;3.75;;;;;;;;;;4880437;29;20048;-74
2021/12/07 17:29:16;;;;;;;13.80;3.42;;;;;;;;;;4880325;29;20441;-74
2021/12/07 17:31:42;;;;;;;20.75;3.40;;;;;;;;;;4880150;29;20029;-75
2021/12/07 17:34:09;;;;;;;17.77;4.43;;;;;;;;;;4879920;29;20040;-74
2021/12/07 17:36:35;;;;;;;15.35;3.17;;;;;;;;;;4880942;29;20354;-75
2021/12/07 17:39:05;;;;;;;12.73;2.70;;;;;;;;;;4881378;29;20427;-74
2021/12/07 17:41:31;;;;;;;10.13;2.95;;;;;;;;;;4881036;29;20029;-75
2021/12/07 17:43:58;;;;;;;13.90;2.97;;;;;;;;;;4879606;29;20033;-75
2021/12/07 17:46:25;;;;;;;8.32;2.08;;;;;;;;;;4880021;29;20037;-75
2021/12/07 17:48:51;;;;;;;20.77;3.85;;;;;;;;;;4880473;29;20025;-74
2021/12/07 17:51:17;;;;;;;13.48;3.05;;;;;;;;;;4880627;29;20056;-75
2021/12/07 17:53:43;;;;;;;13.88;2.53;;;;;;;;;;4880146;29;20565;-75
2021/12/07 17:56:09;;;;;;;15.00;2.90;;;;;;;;;;4881009;29;20040;-75
2021/12/07 17:58:35;;;;;;;16.10;3.28;;;;;;;;;;4880146;29;20027;-74
2021/12/07 18:01:01;;;;;;;19.17;3.40;;;;;;;;;;4880402;29;20112;-74
2021/12/07 18:03:28;;;;;;;20.83;2.83;;;;;;;;;;4879683;29;20482;-75
2021/12/07 18:05:57;;;;;;;11.18;2.65;;;;;;;;;;4876908;29;20033;-75
2021/12/07 18:08:23;;;;;;;20.60;3.50;;;;;;;;;;4861976;29;20021;-74
2021/12/07 18:10:50;;;;;;;15.68;3.38;;;;;;;;;;4862480;29;20029;-80
2021/12/07 18:13:16;;;;;;;13.60;3.00;;;;;;;;;;4880497;29;20025;-76
2021/12/07 18:15:42;;;;;;;11.43;2.70;;;;;;;;;;4879072;29;20037;-76
2021/12/07 18:18:09;;;;;;;15.65;3.72;;;;;;;;;;4880042;29;20072;-74
2021/12/07 18:20:38;;;;;;;15.15;2.88;;;;;;;;;;4879275;29;20056;-77
2021/12/07 18:23:08;;;;;;;16.80;3.05;;;;;;;;;;4879078;29;20033;-76
2021/12/07 18:25:36;;;;;;;14.40;3.00;;;;;;;;;;4877584;29;20084;-75
2021/12/07 18:28:02;;;;;;;16.33;3.42;;;;;;;;;;4880029;29;20473;-75
2021/12/07 18:30:35;;;;;;;12.18;3.10;;;;;;;;;;4879160;29;20056;-76
2021/12/07 18:33:02;;;;;;;12.75;3.22;;;;;;;;;;4877419;29;20017;-75
2021/12/07 18:35:28;;;;;;;17.25;3.97;;;;;;;;;;4878669;29;20424;-74
2021/12/07 18:37:54;;;;;;;10.68;3.10;;;;;;;;;;4879608;29;20501;-74
2021/12/07 18:40:20;;;;;;;16.38;3.55;;;;;;;;;;4880125;29;20578;-74
2021/12/07 18:42:46;;;;;;;14.90;3.75;;;;;;;;;;4879666;29;20029;-76
2021/12/07 18:45:13;;;;;;;16.30;3.10;;;;;;;;;;4878806;29;20084;-76
2021/12/07 18:47:39;;;;;;;12.95;3.03;;;;;;;;;;4879636;29;20025;-75
2021/12/07 18:50:07;;;;;;;15.35;3.13;;;;;;;;;;4878998;29;20111;-76
2021/12/07 18:52:33;;;;;;;16.77;2.45;;;;;;;;;;4879681;29;20017;-75
2021/12/07 18:54:59;;;;;;;14.27;2.70;;;;;;;;;;4879545;29;20025;-75
2021/12/07 18:57:25;;;;;;;13.70;3.00;;;;;;;;;;4877778;29;20032;-75
2021/12/07 18:59:51;;;;;;;20.23;3.45;;;;;;;;;;4879818;29;20041;-76
2021/12/07 19:02:17;;;;;;;19.20;4.13;;;;;;;;;;4879660;29;20381;-77
2021/12/07 19:04:43;;;;;;;19.90;3.80;;;;;;;;;;4879878;29;20605;-77
2021/12/07 19:07:09;;;;;;;20.67;3.20;;;;;;;;;;4879190;29;20036;-77
2021/12/07 19:09:35;;;;;;;13.88;3.55;;;;;;;;;;4879746;29;20072;-77
2021/12/07 19:12:02;;;;;;;17.63;3.85;;;;;;;;;;4879605;29;20025;-77
2021/12/07 19:14:29;;;;;;;13.52;3.25;;;;;;;;;;4878755;29;20488;-77
2021/12/07 19:16:55;;;;;;;13.10;3.38;;;;;;;;;;4873892;29;20501;-79
2021/12/07 19:19:21;;;;;;;15.65;3.38;;;;;;;;;;4879196;29;20036;-78
2021/12/07 19:21:47;;;;;;;24.33;4.10;;;;;;;;;;4877964;29;20024;-77
2021/12/07 19:24:13;;;;;;;17.60;3.97;;;;;;;;;;4879090;29;20485;-79
2021/12/07 19:26:40;;;;;;;26.23;7.38;;;;;;;;;;4878348;29;20413;-75
2021/12/07 19:29:06;;;;;;;23.17;4.28;;;;;;;;;;4878480;29;20029;-76